Time;durP1;ratioP1;P1;durP2;ratioP2;P2;SDS_P1;SDS_P2;PMS_P1;PMS_P2;Temp;Humidity;BMP_temperature;BMP_pressure;BME280_temperature;BME280_humidity;BME280_pressure;Samples;Min_cycle;Max_cycle;Signal;HPM_P1;HPM_P2
2022/10/11 00:00:59;;;;;;;6.20;3.47;;;;;;;15.92;100.00;100804.16;5079653;28;20186;-72
2022/10/11 00:03:25;;;;;;;4.80;3.40;;;;;;;15.93;100.00;100807.66;5074101;28;20610;-74
2022/10/11 00:05:52;;;;;;;4.77;3.20;;;;;;;15.94;100.00;100810.22;5076526;28;20282;-74
2022/10/11 00:08:18;;;;;;;8.10;3.70;;;;;;;15.94;100.00;100806.75;5072605;28;20618;-73
2022/10/11 00:10:43;;;;;;;5.50;3.57;;;;;;;15.92;100.00;100798.94;5074918;28;20205;-73
2022/10/11 00:13:08;;;;;;;6.10;3.50;;;;;;;15.91;100.00;100801.59;5076840;28;20757;-72
2022/10/11 00:15:34;;;;;;;5.37;3.53;;;;;;;15.90;100.00;100805.94;5075867;28;20196;-75
2022/10/11 00:17:59;;;;;;;5.27;3.73;;;;;;;15.89;100.00;100806.00;5070430;28;20613;-73
2022/10/11 00:20:25;;;;;;;8.70;3.77;;;;;;;15.88;100.00;100804.28;5076193;28;20202;-72
2022/10/11 00:22:51;;;;;;;5.43;3.37;;;;;;;15.87;100.00;100806.03;5079751;28;20210;-74
2022/10/11 00:25:16;;;;;;;6.33;3.67;;;;;;;15.85;100.00;100806.06;5078436;28;20192;-72
2022/10/11 00:27:42;;;;;;;7.07;4.00;;;;;;;15.85;100.00;100807.81;5074330;28;20205;-72
2022/10/11 00:30:08;;;;;;;8.83;4.03;;;;;;;15.82;100.00;100807.84;5076590;28;20285;-73
2022/10/11 00:32:36;;;;;;;7.73;4.07;;;;;;;15.79;100.00;100811.41;5071642;28;20452;-73
2022/10/11 00:35:05;;;;;;;8.13;3.90;;;;;;;15.79;100.00;100808.78;5079444;28;20629;-73
2022/10/11 00:37:31;;;;;;;7.17;4.00;;;;;;;15.78;100.00;100804.47;5072756;28;20220;-73
2022/10/11 00:39:57;;;;;;;7.03;3.60;;;;;;;15.76;100.00;100805.38;5077724;28;20254;-73
2022/10/11 00:42:22;;;;;;;6.20;3.70;;;;;;;15.73;100.00;100808.06;5074532;28;20624;-73
2022/10/11 00:44:49;;;;;;;5.60;3.40;;;;;;;15.71;100.00;100815.91;5073069;28;20596;-75
2022/10/11 00:47:21;;;;;;;4.33;3.37;;;;;;;15.67;100.00;100812.53;5073068;28;20273;-72
2022/10/11 00:49:57;;;;;;;4.53;3.03;;;;;;;15.65;100.00;100813.47;5078104;28;20279;-73
2022/10/11 00:52:33;;;;;;;4.93;3.20;;;;;;;15.64;100.00;100817.81;5078716;28;20187;-72
2022/10/11 00:55:04;;;;;;;6.60;3.40;;;;;;;15.64;100.00;100822.19;5080127;28;20209;-72
2022/10/11 00:57:34;;;;;;;8.23;4.20;;;;;;;15.62;100.00;100826.56;5078397;28;20193;-73
2022/10/11 00:59:59;;;;;;;3.87;3.10;;;;;;;15.61;100.00;100828.28;5075030;28;20212;-72
2022/10/11 01:02:25;;;;;;;6.70;4.03;;;;;;;15.59;100.00;100824.84;5076667;28;20846;-72
2022/10/11 01:04:50;;;;;;;8.27;3.93;;;;;;;15.59;100.00;100831.84;5073286;28;20571;-73
2022/10/11 01:07:19;;;;;;;8.53;3.70;;;;;;;15.58;100.00;100830.97;5074931;28;20193;-73
2022/10/11 01:09:45;;;;;;;4.80;3.80;;;;;;;15.56;100.00;100835.38;5073154;28;20209;-72
2022/10/11 01:12:15;;;;;;;7.17;3.77;;;;;;;15.57;100.00;100833.63;5078422;28;20186;-73
2022/10/11 01:15:17;;;;;;;6.53;3.67;;;;;;;15.58;100.00;100835.34;5072949;28;20238;-73
2022/10/11 01:17:57;;;;;;;5.30;3.60;;;;;;;15.55;100.00;100825.84;5077819;28;20185;-73
2022/10/11 01:20:26;;;;;;;9.37;4.60;;;;;;;15.54;100.00;100835.41;5075776;28;20200;-72
2022/10/11 01:23:03;;;;;;;7.67;4.27;;;;;;;15.54;100.00;100831.94;5078853;28;20236;-75
2022/10/11 01:25:28;;;;;;;8.43;4.23;;;;;;;15.51;100.00;100832.84;5073972;28;20182;-73
2022/10/11 01:28:25;;;;;;;6.70;4.13;;;;;;;15.51;100.00;100832.00;5083944;28;20633;-73
2022/10/11 01:30:54;;;;;;;9.43;4.50;;;;;;;15.46;100.00;100826.88;5069821;28;20220;-73
2022/10/11 01:33:42;;;;;;;7.63;4.20;;;;;;;15.45;100.00;100829.50;5078299;28;20186;-73
2022/10/11 01:36:26;;;;;;;9.07;4.47;;;;;;;15.43;100.00;100829.56;5074983;28;20177;-73
2022/10/11 01:39:07;;;;;;;6.20;3.83;;;;;;;15.43;100.00;100829.56;5080839;28;20265;-73
2022/10/11 01:41:39;;;;;;;6.03;4.00;;;;;;;15.42;100.00;100820.00;5072097;28;20210;-73
2022/10/11 01:44:07;;;;;;;7.07;4.30;;;;;;;15.42;100.00;100829.59;5073189;28;20177;-72
2022/10/11 01:46:33;;;;;;;8.97;4.73;;;;;;;15.41;100.00;100830.47;5073564;28;20263;-72
2022/10/11 01:49:00;;;;;;;6.80;4.47;;;;;;;15.39;100.00;100833.09;5073169;28;20218;-72
2022/10/11 01:51:32;;;;;;;5.33;4.40;;;;;;;15.39;100.00;100840.91;5075989;28;20169;-72
2022/10/11 01:54:12;;;;;;;9.17;5.27;;;;;;;15.37;100.00;100833.16;5073831;28;20189;-72
2022/10/11 01:57:03;;;;;;;10.20;4.90;;;;;;;15.36;100.00;100835.75;5072792;28;20203;-73
2022/10/11 01:59:40;;;;;;;10.73;4.90;;;;;;;15.36;100.00;100839.25;5079726;28;20239;-74
2022/10/11 02:02:26;;;;;;;9.03;4.70;;;;;;;15.34;100.00;100832.34;5069286;28;20309;-73
2022/10/11 02:05:11;;;;;;;6.90;5.00;;;;;;;15.34;100.00;100837.56;5072396;28;20235;-72
2022/10/11 02:07:56;;;;;;;8.50;5.47;;;;;;;15.32;100.00;100832.38;5077261;28;20250;-73
2022/10/11 02:10:35;;;;;;;13.23;5.60;;;;;;;15.32;100.00;100832.38;5075327;28;20232;-73
2022/10/11 02:13:10;;;;;;;7.77;4.90;;;;;;;15.32;100.00;100845.41;5073269;28;20176;-74
2022/10/11 02:15:39;;;;;;;6.80;4.23;;;;;;;15.33;100.00;100830.63;5072768;28;20181;-74
2022/10/11 02:18:14;;;;;;;6.23;4.47;;;;;;;15.31;100.00;100845.44;5070775;28;20616;-73
2022/10/11 02:20:41;;;;;;;6.93;4.40;;;;;;;15.31;100.00;100841.06;5075514;28;20228;-75
2022/10/11 02:23:12;;;;;;;10.30;5.10;;;;;;;15.32;100.00;100853.22;5072459;28;20272;-73
2022/10/11 02:25:40;;;;;;;8.03;4.80;;;;;;;15.29;100.00;100852.44;5076028;28;20188;-73
2022/10/11 02:28:16;;;;;;;7.43;5.23;;;;;;;15.28;100.00;100855.94;5075998;28;20718;-73
2022/10/11 02:30:43;;;;;;;7.17;4.90;;;;;;;15.26;100.00;100857.72;5071981;28;20208;-75
2022/10/11 02:33:14;;;;;;;11.57;6.53;;;;;;;15.24;100.00;100852.53;5073159;28;20193;-72
2022/10/11 02:35:46;;;;;;;10.50;6.27;;;;;;;15.18;100.00;100850.91;5077945;28;20192;-73
2022/10/11 02:38:23;;;;;;;12.33;7.80;;;;;;;15.15;100.00;100855.28;5072461;28;20210;-73
2022/10/11 02:41:07;;;;;;;11.53;7.83;;;;;;;15.11;100.00;100851.06;5067711;28;20205;-72
2022/10/11 02:43:38;;;;;;;12.63;7.00;;;;;;;15.08;100.00;100857.16;5072120;28;20197;-73
2022/10/11 02:46:05;;;;;;;11.13;7.90;;;;;;;15.05;100.00;100860.69;5075927;28;20178;-74
2022/10/11 02:48:32;;;;;;;15.03;8.50;;;;;;;15.02;100.00;100858.13;5073635;28;20404;-73
2022/10/11 02:50:58;;;;;;;10.97;8.33;;;;;;;15.00;100.00;100853.84;5070448;28;20186;-73
2022/10/11 02:53:25;;;;;;;11.63;7.67;;;;;;;14.99;100.00;100854.72;5074413;28;20239;-72
2022/10/11 02:55:52;;;;;;;10.20;7.57;;;;;;;14.96;100.00;100852.19;5080525;28;20182;-73
2022/10/11 02:58:18;;;;;;;12.93;7.50;;;;;;;14.92;100.00;100854.84;5079867;28;20193;-73
2022/10/11 03:00:43;;;;;;;13.10;8.37;;;;;;;14.90;100.00;100854.00;5077687;28;20215;-72
2022/10/11 03:03:08;;;;;;;11.57;7.00;;;;;;;14.89;100.00;100865.34;5077206;28;20200;-73
2022/10/11 03:05:39;;;;;;;12.33;7.07;;;;;;;14.86;100.00;100860.16;5081213;28;20216;-72
2022/10/11 03:08:06;;;;;;;9.73;7.27;;;;;;;14.83;100.00;100862.81;5073778;28;20228;-75
2022/10/11 03:10:32;;;;;;;12.60;7.23;;;;;;;14.81;100.00;100856.78;5078111;28;20212;-72
2022/10/11 03:12:57;;;;;;;11.40;7.87;;;;;;;14.80;100.00;100856.81;5081833;28;20228;-76
2022/10/11 03:15:23;;;;;;;15.13;8.23;;;;;;;14.74;100.00;100863.84;5075402;28;20251;-73
2022/10/11 03:17:48;;;;;;;15.07;9.17;;;;;;;14.72;100.00;100860.41;5072927;28;20185;-72
2022/10/11 03:20:13;;;;;;;12.67;7.87;;;;;;;14.69;100.00;100860.44;5078270;28;20208;-73
2022/10/11 03:22:39;;;;;;;11.23;7.70;;;;;;;14.65;100.00;100861.38;5072630;28;20210;-72
2022/10/11 03:25:05;;;;;;;11.20;8.40;;;;;;;14.63;100.00;100865.75;5074456;28;20236;-74
2022/10/11 03:27:31;;;;;;;15.07;9.00;;;;;;;14.60;100.00;100866.63;5073182;28;20235;-74
2022/10/11 03:29:57;;;;;;;13.70;9.40;;;;;;;14.55;100.00;100865.88;5074963;28;20220;-74
2022/10/11 03:32:22;;;;;;;13.67;9.33;;;;;;;14.50;100.00;100864.22;5075545;28;20226;-73
2022/10/11 03:34:47;;;;;;;13.80;8.73;;;;;;;14.43;100.00;100869.53;5077052;28;20734;-73
2022/10/11 03:37:13;;;;;;;12.40;9.40;;;;;;;14.38;100.00;100870.47;5073385;28;20189;-72
2022/10/11 03:39:38;;;;;;;14.70;9.27;;;;;;;14.32;100.00;100880.09;5075603;28;20197;-74
2022/10/11 03:42:03;;;;;;;15.53;9.73;;;;;;;14.28;100.00;100870.63;5075967;28;20216;-72
2022/10/11 03:44:28;;;;;;;13.37;9.90;;;;;;;14.24;100.00;100866.34;5071329;28;20266;-72
2022/10/11 03:46:54;;;;;;;12.97;10.27;;;;;;;14.23;100.00;100868.94;5071029;28;20575;-74
2022/10/11 03:49:19;;;;;;;11.63;9.87;;;;;;;14.20;100.00;100871.63;5071758;28;20296;-73
2022/10/11 03:51:44;;;;;;;14.67;10.73;;;;;;;14.12;100.00;100874.34;5066325;28;20186;-73
2022/10/11 03:54:10;;;;;;;14.23;10.67;;;;;;;14.11;100.00;100881.28;5074074;28;20548;-72
2022/10/11 03:56:35;;;;;;;13.97;10.27;;;;;;;14.08;100.00;100883.06;5073140;28;20196;-73
2022/10/11 03:59:01;;;;;;;14.83;12.00;;;;;;;14.07;100.00;100881.34;5072959;28;20212;-72
2022/10/11 04:01:26;;;;;;;18.33;12.77;;;;;;;14.03;100.00;100878.78;5081695;28;20302;-75
2022/10/11 04:03:56;;;;;;;15.43;13.03;;;;;;;14.02;100.00;100884.84;5073034;28;20212;-74
2022/10/11 04:06:21;;;;;;;16.33;13.10;;;;;;;14.02;100.00;100891.81;5074356;28;20609;-76
2022/10/11 04:08:46;;;;;;;14.97;13.27;;;;;;;14.00;100.00;100889.22;5071075;28;20350;-76
2022/10/11 04:11:12;;;;;;;18.43;14.13;;;;;;;13.96;100.00;100894.50;5075292;28;20191;-74
2022/10/11 04:13:37;;;;;;;18.23;14.83;;;;;;;13.91;100.00;100899.75;5077881;28;20742;-73
2022/10/11 04:16:02;;;;;;;20.47;15.73;;;;;;;13.88;100.00;100902.41;5074153;28;20185;-73
2022/10/11 04:18:28;;;;;;;20.57;16.70;;;;;;;13.86;100.00;100899.81;5073014;28;20188;-74
2022/10/11 04:20:53;;;;;;;15.57;14.00;;;;;;;13.83;100.00;100902.47;5073347;28;21094;-72
2022/10/11 04:23:18;;;;;;;21.33;16.50;;;;;;;13.83;100.00;100899.84;5079817;28;20220;-73
2022/10/11 04:25:44;;;;;;;19.73;15.40;;;;;;;13.82;100.00;100905.94;5076355;28;20196;-72
2022/10/11 04:28:09;;;;;;;17.20;15.23;;;;;;;13.79;100.00;100903.38;5075456;28;20190;-74
2022/10/11 04:30:35;;;;;;;19.17;16.20;;;;;;;13.80;100.00;100899.88;5072955;28;21174;-73
2022/10/11 04:33:01;;;;;;;17.50;15.33;;;;;;;13.78;100.00;100904.25;5075912;28;20209;-74
2022/10/11 04:35:26;;;;;;;16.33;14.50;;;;;;;13.77;100.00;100909.47;5077439;28;20276;-74
2022/10/11 04:37:51;;;;;;;15.47;14.03;;;;;;;13.77;100.00;100917.28;5074961;28;20237;-73
2022/10/11 04:40:17;;;;;;;15.03;13.20;;;;;;;13.76;100.00;100913.84;5078068;28;20213;-73
2022/10/11 04:42:42;;;;;;;14.00;12.60;;;;;;;13.76;100.00;100913.84;5070542;28;20213;-73
2022/10/11 04:45:08;;;;;;;20.33;15.33;;;;;;;13.77;100.00;100914.69;5079871;28;20244;-73
2022/10/11 04:47:34;;;;;;;20.37;16.50;;;;;;;13.77;100.00;100922.50;5075109;28;20195;-73
2022/10/11 04:49:59;;;;;;;20.27;17.37;;;;;;;13.73;100.00;100926.88;5072799;28;20208;-72
2022/10/11 04:52:24;;;;;;;21.50;17.77;;;;;;;13.70;100.00;100927.75;5071744;28;20193;-73
2022/10/11 04:54:50;;;;;;;21.17;18.97;;;;;;;13.70;100.00;100932.09;5070300;28;20209;-74
2022/10/11 04:57:15;;;;;;;23.67;21.13;;;;;;;13.70;100.00;100937.31;5074906;28;20193;-73
2022/10/11 04:59:40;;;;;;;23.23;20.83;;;;;;;13.68;100.00;100950.34;5075334;28;20212;-75
2022/10/11 05:02:06;;;;;;;24.17;21.33;;;;;;;13.65;100.00;100937.38;5073693;28;20213;-73
2022/10/11 05:04:31;;;;;;;26.33;23.53;;;;;;;13.63;100.00;100943.44;5069483;28;20373;-74
2022/10/11 05:06:56;;;;;;;25.97;23.17;;;;;;;13.61;100.00;100955.63;5076897;28;20185;-74
2022/10/11 05:09:22;;;;;;;25.20;22.50;;;;;;;13.60;100.00;100946.94;5076943;28;20596;-72
2022/10/11 05:11:48;;;;;;;24.90;22.00;;;;;;;13.61;100.00;100953.88;5071872;28;20288;-73
2022/10/11 05:14:13;;;;;;;24.80;22.17;;;;;;;13.60;100.00;100957.34;5069524;28;22094;-73
2022/10/11 05:16:38;;;;;;;23.77;21.43;;;;;;;13.60;100.00;100954.75;5074717;28;20187;-73
2022/10/11 05:19:04;;;;;;;21.73;19.10;;;;;;;13.68;100.00;100957.28;5071408;28;20257;-74
2022/10/11 05:21:29;;;;;;;20.30;17.83;;;;;;;13.70;100.00;100964.16;5077123;28;20711;-76
2022/10/11 05:23:56;;;;;;;22.50;20.20;;;;;;;13.69;100.00;100956.41;5069367;28;20192;-75
2022/10/11 05:26:22;;;;;;;23.20;20.80;;;;;;;13.68;100.00;100965.06;5072521;28;20187;-73
2022/10/11 05:28:48;;;;;;;24.57;22.03;;;;;;;13.67;100.00;100974.63;5070739;28;20208;-74
2022/10/11 05:31:14;;;;;;;26.37;23.70;;;;;;;13.65;100.00;100973.78;5073773;28;20884;-74
2022/10/11 05:33:39;;;;;;;27.83;25.27;;;;;;;13.61;100.00;100973.84;5073818;28;20187;-73
2022/10/11 05:36:05;;;;;;;29.20;25.77;;;;;;;13.56;100.00;100976.47;5077826;28;20184;-73
2022/10/11 05:38:31;;;;;;;28.43;25.03;;;;;;;13.54;100.00;100991.22;5077665;28;20565;-76
2022/10/11 05:41:01;;;;;;;31.13;26.23;;;;;;;13.50;100.00;100992.13;5083259;28;20185;-72
2022/10/11 05:43:27;;;;;;;28.57;25.53;;;;;;;13.47;100.00;100990.41;5072764;28;20217;-73
2022/10/11 05:45:53;;;;;;;29.80;26.67;;;;;;;13.47;100.00;100995.63;5068524;28;20196;-72
2022/10/11 05:48:19;;;;;;;27.43;24.73;;;;;;;13.45;100.00;100997.41;5066664;28;20276;-73
2022/10/11 05:50:44;;;;;;;27.17;24.30;;;;;;;13.43;100.00;100999.13;5066191;28;20247;-74
2022/10/11 05:53:10;;;;;;;27.67;24.87;;;;;;;13.41;100.00;100996.53;5072617;28;20269;-73
2022/10/11 05:55:39;;;;;;;26.30;23.70;;;;;;;13.38;100.00;101001.75;5073582;28;20304;-73
2022/10/11 05:58:06;;;;;;;25.33;22.63;;;;;;;13.37;100.00;101007.84;5073136;28;20234;-74
2022/10/11 06:00:34;;;;;;;25.23;21.37;;;;;;;13.32;100.00;101008.72;5075155;28;20211;-73
2022/10/11 06:03:00;;;;;;;21.60;19.37;;;;;;;13.27;100.00;101022.63;5081073;28;20209;-73
2022/10/11 06:05:25;;;;;;;21.70;19.50;;;;;;;13.25;100.00;101020.91;5082690;28;20822;-72
2022/10/11 06:07:50;;;;;;;22.20;19.30;;;;;;;13.25;100.00;101032.19;5077579;28;20189;-74
2022/10/11 06:10:16;;;;;;;18.50;16.70;;;;;;;13.23;100.00;101022.69;5080178;28;20210;-73
2022/10/11 06:12:41;;;;;;;17.90;15.90;;;;;;;13.21;100.00;101020.06;5081099;28;20179;-73
2022/10/11 06:15:07;;;;;;;19.20;15.00;;;;;;;13.22;100.00;101031.34;5077369;28;20737;-72
2022/10/11 06:17:33;;;;;;;19.70;14.37;;;;;;;13.14;100.00;101023.63;5072143;28;20196;-74
2022/10/11 06:19:58;;;;;;;15.03;13.43;;;;;;;13.14;100.00;101035.72;5079120;28;20738;-72
2022/10/11 06:22:24;;;;;;;15.30;12.63;;;;;;;13.13;100.00;101028.81;5084852;28;20259;-72
2022/10/11 06:24:49;;;;;;;14.60;13.10;;;;;;;13.15;100.00;101037.47;5082118;28;20188;-75
2022/10/11 06:27:14;;;;;;;12.50;11.23;;;;;;;13.14;100.00;101034.00;5085016;28;20650;-72
2022/10/11 06:29:40;;;;;;;16.07;12.03;;;;;;;13.15;100.00;101043.53;5082433;28;20217;-72
2022/10/11 06:32:05;;;;;;;14.97;10.63;;;;;;;13.11;100.00;101037.47;5078340;28;20183;-75
2022/10/11 06:34:31;;;;;;;10.90;9.90;;;;;;;13.16;100.00;101052.19;5069483;28;20190;-75
2022/10/11 06:36:56;;;;;;;12.33;10.63;;;;;;;13.14;100.00;101054.81;5076993;28;20196;-75
2022/10/11 06:39:21;;;;;;;13.00;10.10;;;;;;;13.17;100.00;101054.75;5084186;28;20223;-74
2022/10/11 06:41:46;;;;;;;13.23;10.57;;;;;;;13.18;100.00;101050.44;5071932;28;20208;-73
2022/10/11 06:44:13;;;;;;;10.20;8.97;;;;;;;13.21;100.00;101056.47;5072348;28;20325;-75
2022/10/11 06:46:39;;;;;;;9.83;8.40;;;;;;;13.20;100.00;101054.75;5073724;28;20185;-73
2022/10/11 06:49:04;;;;;;;8.63;7.70;;;;;;;13.17;100.00;101052.16;5083241;28;20211;-74
2022/10/11 06:51:30;;;;;;;7.87;6.97;;;;;;;13.23;100.00;101056.47;5075645;28;20198;-74
2022/10/11 06:53:57;;;;;;;10.37;7.70;;;;;;;13.21;100.00;101060.81;5072750;28;20200;-74
2022/10/11 06:56:24;;;;;;;8.73;7.13;;;;;;;13.22;100.00;101070.34;5076408;28;20558;-76
2022/10/11 06:58:50;;;;;;;8.60;6.23;;;;;;;13.16;100.00;101066.03;5075826;28;20833;-74
2022/10/11 07:01:19;;;;;;;8.73;5.93;;;;;;;13.10;100.00;101069.53;5077218;28;20186;-72
2022/10/11 07:03:44;;;;;;;9.47;5.97;;;;;;;13.08;100.00;101071.28;5076442;28;20280;-74
2022/10/11 07:06:13;;;;;;;9.90;6.07;;;;;;;13.07;100.00;101074.78;5079810;28;20286;-75
2022/10/11 07:08:38;;;;;;;10.17;5.93;;;;;;;13.09;100.00;101079.94;5078961;28;20197;-73
2022/10/11 07:11:07;;;;;;;7.63;5.47;;;;;;;13.10;100.00;101077.31;5078441;28;20186;-74
2022/10/11 07:13:33;;;;;;;8.73;5.27;;;;;;;13.16;100.00;101084.22;5080987;28;20742;-72
2022/10/11 07:16:07;;;;;;;9.43;5.47;;;;;;;13.24;100.00;101087.63;5082972;28;20194;-73
2022/10/11 07:18:33;;;;;;;8.07;4.73;;;;;;;13.26;100.00;101090.22;5086792;28;20198;-74
2022/10/11 07:21:02;;;;;;;6.83;4.83;;;;;;;13.31;100.00;101104.06;5079822;28;20316;-74
2022/10/11 07:23:27;;;;;;;8.13;4.43;;;;;;;13.28;100.00;101098.88;5076276;28;20706;-72
2022/10/11 07:25:53;;;;;;;7.13;3.80;;;;;;;13.37;100.00;101103.16;5083218;28;20196;-74
2022/10/11 07:28:20;;;;;;;9.30;3.50;;;;;;;13.40;100.00;101098.81;5083544;28;20191;-74
2022/10/11 07:30:46;;;;;;;7.43;3.80;;;;;;;13.48;100.00;101110.91;5077855;28;20199;-71
2022/10/11 07:33:11;;;;;;;8.23;3.80;;;;;;;13.47;100.00;101107.41;5077778;28;20218;-72
2022/10/11 07:35:37;;;;;;;5.73;3.47;;;;;;;13.47;100.00;101107.41;5079820;28;20179;-74
2022/10/11 07:38:03;;;;;;;4.60;3.27;;;;;;;13.67;100.00;101109.00;5085173;28;20192;-73
2022/10/11 07:40:29;;;;;;;4.97;3.37;;;;;;;13.84;100.00;101114.06;5084882;28;20260;-72
2022/10/11 07:42:56;;;;;;;8.37;3.77;;;;;;;13.95;100.00;101113.94;5082506;28;20665;-74
2022/10/11 07:45:27;;;;;;;9.27;2.97;;;;;;;13.97;100.00;101114.81;5081086;28;20659;-73
2022/10/11 07:47:54;;;;;;;9.57;3.10;;;;;;;13.93;100.00;101113.97;5088038;28;20260;-73
2022/10/11 07:50:20;;;;;;;7.30;2.93;;;;;;;13.72;100.00;101123.69;5089329;28;20587;-74
2022/10/11 07:52:45;;;;;;;7.53;2.90;;;;;;;13.61;100.00;101119.47;5085902;28;20212;-74
2022/10/11 07:55:11;;;;;;;7.23;2.87;;;;;;;13.64;100.00;101120.31;5082786;28;20230;-75
2022/10/11 07:57:36;;;;;;;9.30;3.00;;;;;;;13.68;100.00;101115.94;5082316;28;21097;-74
2022/10/11 08:00:01;;;;;;;8.20;3.10;;;;;;;13.73;100.00;101119.38;5085132;28;20280;-74
2022/10/11 08:02:27;;;;;;;7.40;3.10;;;;;;;13.63;100.00;101109.91;5079788;28;20220;-72
2022/10/11 08:04:52;;;;;;;6.10;2.83;;;;;;;13.80;100.00;101115.81;5082928;28;20727;-74
2022/10/11 08:07:17;;;;;;;10.03;3.10;;;;;;;13.86;100.00;101117.50;5087318;28;20191;-73
2022/10/11 08:09:42;;;;;;;8.83;2.93;;;;;;;13.90;100.00;101114.00;5079893;28;20213;-73
2022/10/11 08:12:08;;;;;;;7.60;3.33;;;;;;;13.98;100.00;101120.00;5082991;28;20176;-72
2022/10/11 08:14:34;;;;;;;5.43;2.90;;;;;;;13.99;99.92;101120.84;5077600;28;20184;-73
2022/10/11 08:16:59;;;;;;;8.17;3.07;;;;;;;13.90;99.62;101134.81;5084127;28;20188;-73
2022/10/11 08:19:24;;;;;;;7.70;3.10;;;;;;;13.81;99.65;101125.34;5080505;28;20231;-73
2022/10/11 08:21:50;;;;;;;9.20;3.40;;;;;;;13.79;99.94;101128.84;5082015;28;20294;-74
2022/10/11 08:24:19;;;;;;;5.00;2.43;;;;;;;13.80;100.00;101134.03;5081366;28;20182;-73
2022/10/11 08:26:45;;;;;;;9.17;2.60;;;;;;;13.96;99.58;101131.28;5079583;28;20280;-74
2022/10/11 08:29:11;;;;;;;7.73;3.10;;;;;;;13.99;98.56;101136.47;5074593;28;20207;-74
2022/10/11 08:31:36;;;;;;;8.70;3.10;;;;;;;13.99;97.50;101137.31;5078947;28;20228;-73
2022/10/11 08:34:01;;;;;;;10.80;3.50;;;;;;;13.85;98.65;101139.19;5069931;28;20267;-73
2022/10/11 08:36:27;;;;;;;8.43;3.40;;;;;;;13.76;98.68;101134.97;5069732;28;20194;-73
2022/10/11 08:38:52;;;;;;;8.77;3.73;;;;;;;13.68;99.14;101128.94;5075143;28;20208;-74
2022/10/11 08:41:27;;;;;;;8.53;3.57;;;;;;;13.64;99.48;101138.50;5076185;28;20213;-73
2022/10/11 08:44:30;;;;;;;13.07;3.47;;;;;;;13.57;99.76;101135.09;5081857;28;20744;-73
2022/10/11 08:47:00;;;;;;;13.17;4.23;;;;;;;13.49;100.00;101126.47;5076171;28;20189;-74
2022/10/11 08:49:29;;;;;;;8.77;3.63;;;;;;;13.49;100.00;101136.88;5070810;28;20214;-73
2022/10/11 08:52:01;;;;;;;9.33;3.70;;;;;;;13.53;100.00;101129.94;5072072;28;20203;-74
2022/10/11 08:54:45;;;;;;;12.07;3.73;;;;;;;13.46;100.00;101136.03;5076495;28;20743;-73
2022/10/11 08:57:16;;;;;;;6.77;3.17;;;;;;;13.43;100.00;101133.47;5075339;28;20185;-76
2022/10/11 09:00:27;;;;;;;5.63;3.07;;;;;;;13.54;100.00;101131.63;5082550;28;20303;-73
2022/10/11 09:03:02;;;;;;;5.70;2.50;;;;;;;13.61;100.00;101140.28;5079476;28;20241;-73
2022/10/11 09:05:34;;;;;;;6.87;3.03;;;;;;;13.61;100.00;101130.72;5083803;28;20269;-73
2022/10/11 09:08:26;;;;;;;8.57;3.50;;;;;;;13.54;100.00;101129.91;5077147;28;20189;-73
2022/10/11 09:11:13;;;;;;;8.70;3.30;;;;;;;13.57;100.00;101129.03;5081155;28;20191;-73
2022/10/11 09:13:57;;;;;;;7.73;2.97;;;;;;;13.63;100.00;101126.38;5080757;28;20185;-73
2022/10/11 09:16:43;;;;;;;8.53;2.83;;;;;;;13.76;100.00;101124.56;5081520;28;20189;-73
2022/10/11 09:19:23;;;;;;;6.87;3.27;;;;;;;13.79;99.29;101127.09;5086430;28;20766;-74
2022/10/11 09:22:07;;;;;;;10.03;3.20;;;;;;;13.78;98.73;101130.56;5080625;28;20200;-73
2022/10/11 09:24:53;;;;;;;8.10;3.47;;;;;;;13.89;99.54;101125.28;5078963;28;20182;-73
2022/10/11 09:27:22;;;;;;;6.63;3.27;;;;;;;14.05;99.03;101126.00;5074735;28;20326;-72
2022/10/11 09:30:17;;;;;;;9.13;3.43;;;;;;;13.97;98.33;101133.03;5086250;28;20209;-74
2022/10/11 09:33:14;;;;;;;8.40;3.47;;;;;;;14.17;98.15;101135.41;5079115;28;20217;-73
2022/10/11 09:35:44;;;;;;;10.20;3.50;;;;;;;14.12;97.24;101132.03;5078517;28;20646;-73
2022/10/11 09:38:24;;;;;;;5.20;3.13;;;;;;;14.35;97.39;101129.16;5083494;28;20189;-74
2022/10/11 09:41:02;;;;;;;9.07;3.27;;;;;;;14.43;96.83;101136.91;5074701;28;20209;-73
2022/10/11 09:43:27;;;;;;;11.17;3.33;;;;;;;14.49;96.54;101121.19;5081740;28;20208;-73
2022/10/11 09:45:52;;;;;;;16.27;3.83;;;;;;;14.50;97.00;101128.13;5081344;28;20187;-73
2022/10/11 09:48:40;;;;;;;7.20;3.20;;;;;;;14.56;96.93;101128.06;5083708;28;20665;-72
2022/10/11 09:51:12;;;;;;;6.30;3.40;;;;;;;14.66;96.82;101130.53;5079483;28;21879;-73
2022/10/11 09:54:02;;;;;;;5.83;2.87;;;;;;;14.58;97.15;101128.91;5077973;28;20686;-73
2022/10/11 09:56:29;;;;;;;6.33;3.17;;;;;;;14.62;97.05;101124.50;5084774;28;20200;-72
2022/10/11 09:59:09;;;;;;;12.53;3.33;;;;;;;14.54;97.16;101129.81;5080788;28;20212;-74
2022/10/11 10:01:34;;;;;;;6.53;3.33;;;;;;;14.54;97.60;101129.81;5085084;28;20722;-73
2022/10/11 10:04:09;;;;;;;8.73;3.23;;;;;;;14.39;97.14;101132.59;5079990;28;20181;-75
2022/10/11 10:06:35;;;;;;;7.80;3.27;;;;;;;14.25;98.01;101136.22;5085540;28;20877;-74
2022/10/11 10:09:18;;;;;;;8.07;4.03;;;;;;;14.15;99.84;101134.56;5081978;28;20205;-73
2022/10/11 10:11:43;;;;;;;9.00;4.13;;;;;;;14.17;100.00;101132.81;5081851;28;20208;-73
2022/10/11 10:14:19;;;;;;;7.97;4.17;;;;;;;14.22;100.00;101123.22;5076336;28;20205;-73
2022/10/11 10:16:44;;;;;;;8.47;4.17;;;;;;;14.23;100.00;101135.38;5083322;28;20239;-74
2022/10/11 10:19:24;;;;;;;10.10;4.93;;;;;;;14.22;100.00;101131.03;5086488;28;20771;-72
2022/10/11 10:21:52;;;;;;;9.90;5.03;;;;;;;14.25;100.00;101128.41;5082537;28;20298;-73
2022/10/11 10:24:19;;;;;;;9.80;4.13;;;;;;;14.47;100.00;101134.22;5081170;28;20192;-73
2022/10/11 10:27:16;;;;;;;9.23;4.10;;;;;;;14.56;99.57;101119.38;5084105;28;20224;-74
2022/10/11 10:29:59;;;;;;;21.93;5.93;;;;;;;14.71;99.09;101120.97;5082525;28;20279;-72
2022/10/11 10:32:30;;;;;;;10.33;3.80;;;;;;;14.92;98.91;101128.47;5086276;28;20594;-73
2022/10/11 10:35:07;;;;;;;10.60;4.50;;;;;;;14.94;98.28;101123.25;5085642;28;20231;-75
2022/10/11 10:37:41;;;;;;;9.37;4.90;;;;;;;15.00;98.85;101120.56;5083273;28;20196;-72
2022/10/11 10:40:19;;;;;;;9.47;4.70;;;;;;;15.18;98.37;101123.78;5078391;28;20629;-75
2022/10/11 10:42:44;;;;;;;10.83;5.17;;;;;;;15.32;97.93;101120.97;5085644;28;20220;-73
2022/10/11 10:45:14;;;;;;;7.87;4.60;;;;;;;15.50;97.69;101125.88;5091716;28;20181;-73
2022/10/11 10:47:42;;;;;;;9.60;5.07;;;;;;;15.43;98.45;101118.22;5089627;28;20197;-75
2022/10/11 10:50:17;;;;;;;10.47;6.20;;;;;;;15.43;98.26;101121.66;5087560;28;20684;-75
2022/10/11 10:52:57;;;;;;;7.97;4.63;;;;;;;15.65;97.72;101119.56;5086263;28;20249;-72
2022/10/11 10:55:43;;;;;;;9.87;4.93;;;;;;;15.73;98.03;101116.84;5083460;28;20193;-73
2022/10/11 10:58:24;;;;;;;14.93;5.43;;;;;;;15.77;97.20;101115.91;5083051;28;20197;-72
2022/10/11 11:00:54;;;;;;;7.63;5.07;;;;;;;15.81;97.77;101114.94;5092423;28;20241;-73
2022/10/11 11:03:45;;;;;;;12.67;5.43;;;;;;;15.94;96.77;101114.78;5090786;28;20212;-74
2022/10/11 11:06:24;;;;;;;8.17;5.27;;;;;;;15.81;96.98;101108.88;5079273;28;20866;-73
2022/10/11 11:09:27;;;;;;;8.30;5.53;;;;;;;15.79;97.40;101111.53;5083051;28;20835;-73
2022/10/11 11:12:20;;;;;;;10.87;5.80;;;;;;;15.79;97.98;101108.03;5075702;28;20189;-74
2022/10/11 11:14:48;;;;;;;7.90;4.87;;;;;;;16.04;98.28;101110.22;5080971;28;20189;-73
2022/10/11 11:17:31;;;;;;;9.67;4.93;;;;;;;16.33;96.77;101095.78;5078679;28;20191;-74
2022/10/11 11:20:05;;;;;;;8.73;5.77;;;;;;;16.35;96.89;101096.56;5074899;28;20873;-74
2022/10/11 11:22:55;;;;;;;9.07;5.47;;;;;;;16.32;97.02;101104.50;5079571;28;20213;-75
2022/10/11 11:25:30;;;;;;;10.13;4.63;;;;;;;16.58;96.36;101094.38;5071255;28;20660;-74